createdAt,value
2022-09-11T00:09:43.889Z,10.3
2022-09-11T00:24:53.608Z,10.6
2022-09-11T00:40:03.488Z,9.4
2022-09-11T00:55:12.248Z,12.3
2022-09-11T01:10:21.499Z,13.4
2022-09-11T01:25:31.011Z,22
2022-09-11T01:40:40.596Z,32.7
2022-09-11T01:55:49.620Z,33.9
2022-09-11T02:10:58.959Z,85.2
2022-09-11T02:26:08.359Z,43.4
2022-09-11T02:41:17.869Z,36.7
2022-09-11T02:56:27.371Z,41
2022-09-11T03:11:36.921Z,34.4
2022-09-11T03:26:46.298Z,37.4
2022-09-11T03:41:55.722Z,38.1
2022-09-11T03:57:05.119Z,39.1
2022-09-11T04:12:14.658Z,37
2022-09-11T04:27:23.910Z,36.3
2022-09-11T04:42:33.426Z,50.2
2022-09-11T04:57:42.960Z,59.9
2022-09-11T05:12:52.273Z,57.3
2022-09-11T05:28:01.706Z,55.6
2022-09-11T05:43:11.407Z,49.8
2022-09-11T05:58:20.986Z,44.1
2022-09-11T06:13:30.457Z,48.4
2022-09-11T06:28:40.820Z,46.2
2022-09-11T06:43:50.436Z,44.8
2022-09-11T06:58:59.869Z,46
2022-09-11T07:14:09.588Z,47.9
2022-09-11T07:29:18.776Z,47.6
2022-09-11T07:44:28.453Z,45.1
2022-09-11T07:59:40.867Z,43.5
2022-09-11T08:14:50.512Z,40.2
2022-09-11T08:30:00.440Z,31.2
2022-09-11T08:45:09.749Z,32.4
2022-09-11T09:00:19.653Z,30.6
2022-09-11T09:15:29.902Z,31.6
2022-09-11T09:30:39.414Z,33.4
2022-09-11T09:45:49.571Z,32.5
2022-09-11T10:00:59.863Z,31.3
2022-09-11T10:16:09.951Z,23.7
2022-09-11T10:31:20.109Z,20.4
2022-09-11T10:46:29.716Z,16
2022-09-11T11:01:39.697Z,17.2
2022-09-11T11:16:49.735Z,11.9
2022-09-11T11:31:59.554Z,8.9
2022-09-11T11:47:08.946Z,10.7
2022-09-11T12:02:19.187Z,10
2022-09-11T12:17:29.545Z,8
2022-09-11T12:32:39.242Z,8.1
2022-09-11T12:47:48.795Z,8
2022-09-11T13:03:08.400Z,6.8
2022-09-11T13:18:18.758Z,5.7
2022-09-11T13:33:28.804Z,7.2
2022-09-11T13:48:41.649Z,5.1
2022-09-11T14:03:51.526Z,5
2022-09-11T14:19:00.816Z,3.1
2022-09-11T14:34:10.373Z,7.3
2022-09-11T14:49:20.301Z,6.9
2022-09-11T15:04:29.983Z,4.8
2022-09-11T15:19:41.360Z,5
2022-09-11T15:34:50.421Z,4.1
2022-09-11T15:50:01.037Z,3.7
2022-09-11T16:05:09.894Z,4
2022-09-11T16:20:19.180Z,6
2022-09-11T16:35:29.056Z,13.8
2022-09-11T16:50:41.846Z,13.4
2022-09-11T17:05:51.795Z,15.1
2022-09-11T17:21:01.014Z,15.7
2022-09-11T17:36:10.599Z,13.3
2022-09-11T17:51:19.674Z,14.3
2022-09-11T18:06:29.040Z,13.3
2022-09-11T18:21:41.447Z,17
2022-09-11T18:36:51.011Z,17.4
2022-09-11T18:52:00.858Z,15.7
2022-09-11T19:07:10.487Z,15.8
2022-09-11T19:22:19.601Z,16.5
2022-09-11T19:37:28.781Z,19.4
2022-09-11T19:52:41.795Z,16.8
2022-09-11T20:07:51.011Z,15.9
2022-09-11T20:23:01.265Z,17.8
2022-09-11T20:38:10.438Z,17.3
2022-09-11T20:53:20.734Z,18.9
2022-09-11T21:08:29.446Z,19.6
2022-09-11T21:23:38.610Z,16.2
2022-09-11T21:38:48.271Z,15.6
2022-09-11T21:53:58.616Z,20.5
2022-09-11T22:09:07.952Z,17.5
2022-09-11T22:24:17.853Z,21.6
2022-09-11T22:39:26.283Z,13.6
2022-09-11T22:54:35.436Z,16.7
2022-09-11T23:09:44.886Z,18.6
2022-09-11T23:24:54.532Z,18.9
2022-09-11T23:40:04.398Z,16.7
2022-09-11T23:55:13.860Z,15.1
